sensor_id;sensor_type;location;lat;lon;timestamp;P1;durP1;ratioP1;P2;durP2;ratioP2
9968;SDS011;5025;48.890;9.278;2022-12-16T00:00:22;23.83;;;17.50;;
9968;SDS011;5025;48.890;9.278;2022-12-16T00:02:48;24.63;;;17.73;;
9968;SDS011;5025;48.890;9.278;2022-12-16T00:05:14;24.33;;;19.17;;
9968;SDS011;5025;48.890;9.278;2022-12-16T00:07:40;24.40;;;17.93;;
9968;SDS011;5025;48.890;9.278;2022-12-16T00:10:05;26.37;;;19.13;;
9968;SDS011;5025;48.890;9.278;2022-12-16T00:12:31;25.53;;;19.13;;
9968;SDS011;5025;48.890;9.278;2022-12-16T00:14:57;23.80;;;17.60;;
9968;SDS011;5025;48.890;9.278;2022-12-16T00:17:22;23.90;;;17.63;;
9968;SDS011;5025;48.890;9.278;2022-12-16T00:19:47;24.10;;;17.73;;
9968;SDS011;5025;48.890;9.278;2022-12-16T00:22:13;24.80;;;18.27;;
9968;SDS011;5025;48.890;9.278;2022-12-16T00:24:40;21.90;;;17.00;;
9968;SDS011;5025;48.890;9.278;2022-12-16T00:27:06;25.87;;;19.93;;
9968;SDS011;5025;48.890;9.278;2022-12-16T00:29:32;26.70;;;20.07;;
9968;SDS011;5025;48.890;9.278;2022-12-16T00:31:57;26.03;;;19.73;;
9968;SDS011;5025;48.890;9.278;2022-12-16T00:34:22;23.87;;;18.10;;
9968;SDS011;5025;48.890;9.278;2022-12-16T00:36:47;22.90;;;17.43;;
9968;SDS011;5025;48.890;9.278;2022-12-16T00:39:13;25.27;;;19.20;;
9968;SDS011;5025;48.890;9.278;2022-12-16T00:41:38;25.53;;;18.97;;
9968;SDS011;5025;48.890;9.278;2022-12-16T00:44:03;23.27;;;18.97;;
9968;SDS011;5025;48.890;9.278;2022-12-16T00:46:29;25.23;;;18.70;;
9968;SDS011;5025;48.890;9.278;2022-12-16T00:48:54;27.03;;;19.67;;
9968;SDS011;5025;48.890;9.278;2022-12-16T00:51:20;26.07;;;18.83;;
9968;SDS011;5025;48.890;9.278;2022-12-16T00:53:45;24.43;;;19.10;;
9968;SDS011;5025;48.890;9.278;2022-12-16T00:56:12;27.80;;;20.43;;
9968;SDS011;5025;48.890;9.278;2022-12-16T00:58:44;28.67;;;19.67;;
9968;SDS011;5025;48.890;9.278;2022-12-16T01:01:09;23.47;;;18.60;;
9968;SDS011;5025;48.890;9.278;2022-12-16T01:03:37;26.00;;;19.87;;
9968;SDS011;5025;48.890;9.278;2022-12-16T01:06:09;25.10;;;18.73;;
9968;SDS011;5025;48.890;9.278;2022-12-16T01:08:36;24.40;;;18.07;;
9968;SDS011;5025;48.890;9.278;2022-12-16T01:11:02;26.27;;;18.77;;
9968;SDS011;5025;48.890;9.278;2022-12-16T01:13:27;29.27;;;20.93;;
9968;SDS011;5025;48.890;9.278;2022-12-16T01:15:53;27.13;;;20.53;;
9968;SDS011;5025;48.890;9.278;2022-12-16T01:18:18;25.90;;;19.27;;
9968;SDS011;5025;48.890;9.278;2022-12-16T01:20:44;28.63;;;20.23;;
9968;SDS011;5025;48.890;9.278;2022-12-16T01:23:09;28.30;;;21.07;;
9968;SDS011;5025;48.890;9.278;2022-12-16T01:25:34;28.93;;;20.47;;
9968;SDS011;5025;48.890;9.278;2022-12-16T01:28:00;28.57;;;20.57;;
9968;SDS011;5025;48.890;9.278;2022-12-16T01:30:25;25.10;;;18.37;;
9968;SDS011;5025;48.890;9.278;2022-12-16T01:32:50;25.83;;;20.03;;
9968;SDS011;5025;48.890;9.278;2022-12-16T01:35:16;25.43;;;18.57;;
9968;SDS011;5025;48.890;9.278;2022-12-16T01:37:41;24.57;;;18.07;;
9968;SDS011;5025;48.890;9.278;2022-12-16T01:40:06;23.30;;;17.57;;
9968;SDS011;5025;48.890;9.278;2022-12-16T01:42:33;24.90;;;18.13;;
9968;SDS011;5025;48.890;9.278;2022-12-16T01:45:21;24.67;;;18.20;;
9968;SDS011;5025;48.890;9.278;2022-12-16T01:47:53;25.53;;;17.80;;
9968;SDS011;5025;48.890;9.278;2022-12-16T01:50:23;26.03;;;18.60;;
9968;SDS011;5025;48.890;9.278;2022-12-16T01:52:50;25.33;;;18.57;;
9968;SDS011;5025;48.890;9.278;2022-12-16T01:55:20;24.37;;;18.60;;
9968;SDS011;5025;48.890;9.278;2022-12-16T01:57:57;26.40;;;18.67;;
9968;SDS011;5025;48.890;9.278;2022-12-16T02:00:31;24.30;;;18.73;;
9968;SDS011;5025;48.890;9.278;2022-12-16T02:02:57;24.87;;;17.97;;
9968;SDS011;5025;48.890;9.278;2022-12-16T02:05:24;23.53;;;17.20;;
9968;SDS011;5025;48.890;9.278;2022-12-16T02:08:00;22.23;;;16.50;;
9968;SDS011;5025;48.890;9.278;2022-12-16T02:15:40;26.60;;;19.10;;
9968;SDS011;5025;48.890;9.278;2022-12-16T02:18:17;24.87;;;17.43;;
9968;SDS011;5025;48.890;9.278;2022-12-16T02:21:58;24.93;;;19.50;;
9968;SDS011;5025;48.890;9.278;2022-12-16T02:24:23;25.03;;;18.57;;
9968;SDS011;5025;48.890;9.278;2022-12-16T02:32:44;23.30;;;18.10;;
9968;SDS011;5025;48.890;9.278;2022-12-16T02:38:23;23.73;;;17.67;;
9968;SDS011;5025;48.890;9.278;2022-12-16T02:43:42;25.73;;;19.07;;
9968;SDS011;5025;48.890;9.278;2022-12-16T02:46:14;25.30;;;18.27;;
9968;SDS011;5025;48.890;9.278;2022-12-16T02:48:40;23.60;;;17.97;;
9968;SDS011;5025;48.890;9.278;2022-12-16T02:51:06;22.87;;;16.70;;
9968;SDS011;5025;48.890;9.278;2022-12-16T02:53:31;25.03;;;18.40;;
9968;SDS011;5025;48.890;9.278;2022-12-16T02:59:14;26.83;;;19.03;;
9968;SDS011;5025;48.890;9.278;2022-12-16T03:04:26;26.07;;;19.40;;
9968;SDS011;5025;48.890;9.278;2022-12-16T03:07:06;26.27;;;19.27;;
9968;SDS011;5025;48.890;9.278;2022-12-16T03:09:35;25.77;;;19.70;;
9968;SDS011;5025;48.890;9.278;2022-12-16T03:12:04;26.43;;;19.57;;
9968;SDS011;5025;48.890;9.278;2022-12-16T03:14:33;23.67;;;17.97;;
9968;SDS011;5025;48.890;9.278;2022-12-16T03:17:03;25.07;;;18.47;;
9968;SDS011;5025;48.890;9.278;2022-12-16T03:19:30;21.33;;;16.60;;
9968;SDS011;5025;48.890;9.278;2022-12-16T03:22:39;26.23;;;19.63;;
9968;SDS011;5025;48.890;9.278;2022-12-16T03:24:47;25.37;;;19.17;;
9968;SDS011;5025;48.890;9.278;2022-12-16T03:29:57;24.03;;;18.57;;
9968;SDS011;5025;48.890;9.278;2022-12-16T03:32:31;21.37;;;16.33;;
9968;SDS011;5025;48.890;9.278;2022-12-16T03:35:07;20.63;;;16.83;;
9968;SDS011;5025;48.890;9.278;2022-12-16T03:37:44;21.97;;;16.70;;
9968;SDS011;5025;48.890;9.278;2022-12-16T03:40:12;21.27;;;15.80;;
9968;SDS011;5025;48.890;9.278;2022-12-16T03:42:40;20.50;;;15.93;;
9968;SDS011;5025;48.890;9.278;2022-12-16T03:45:07;20.93;;;16.30;;
9968;SDS011;5025;48.890;9.278;2022-12-16T03:47:39;20.40;;;15.80;;
9968;SDS011;5025;48.890;9.278;2022-12-16T03:50:04;21.43;;;16.80;;
9968;SDS011;5025;48.890;9.278;2022-12-16T03:52:30;23.07;;;17.60;;
9968;SDS011;5025;48.890;9.278;2022-12-16T03:54:55;20.90;;;15.83;;
9968;SDS011;5025;48.890;9.278;2022-12-16T03:57:20;19.53;;;14.80;;
9968;SDS011;5025;48.890;9.278;2022-12-16T03:59:46;22.60;;;16.57;;
9968;SDS011;5025;48.890;9.278;2022-12-16T04:02:11;21.73;;;16.23;;
9968;SDS011;5025;48.890;9.278;2022-12-16T04:04:36;21.17;;;15.63;;
9968;SDS011;5025;48.890;9.278;2022-12-16T04:07:02;22.07;;;16.10;;
9968;SDS011;5025;48.890;9.278;2022-12-16T04:09:45;21.57;;;15.00;;
9968;SDS011;5025;48.890;9.278;2022-12-16T04:12:12;19.70;;;15.50;;
9968;SDS011;5025;48.890;9.278;2022-12-16T04:14:56;20.57;;;15.53;;
9968;SDS011;5025;48.890;9.278;2022-12-16T04:17:40;20.57;;;16.07;;
9968;SDS011;5025;48.890;9.278;2022-12-16T04:20:33;17.90;;;13.93;;
9968;SDS011;5025;48.890;9.278;2022-12-16T04:23:19;18.53;;;13.70;;
9968;SDS011;5025;48.890;9.278;2022-12-16T04:26:07;18.07;;;13.63;;
9968;SDS011;5025;48.890;9.278;2022-12-16T04:28:33;19.77;;;14.87;;
9968;SDS011;5025;48.890;9.278;2022-12-16T04:30:58;17.07;;;13.53;;
9968;SDS011;5025;48.890;9.278;2022-12-16T04:33:23;18.20;;;14.53;;
9968;SDS011;5025;48.890;9.278;2022-12-16T04:36:07;20.73;;;15.63;;
9968;SDS011;5025;48.890;9.278;2022-12-16T04:38:54;18.70;;;13.80;;
9968;SDS011;5025;48.890;9.278;2022-12-16T04:41:38;21.13;;;15.53;;
9968;SDS011;5025;48.890;9.278;2022-12-16T04:44:22;22.73;;;15.87;;
9968;SDS011;5025;48.890;9.278;2022-12-16T04:47:05;20.37;;;15.33;;
9968;SDS011;5025;48.890;9.278;2022-12-16T04:49:50;18.40;;;13.90;;
9968;SDS011;5025;48.890;9.278;2022-12-16T04:52:34;18.73;;;14.37;;
9968;SDS011;5025;48.890;9.278;2022-12-16T04:55:18;20.50;;;14.43;;
9968;SDS011;5025;48.890;9.278;2022-12-16T04:58:02;19.90;;;14.37;;
9968;SDS011;5025;48.890;9.278;2022-12-16T05:00:46;17.73;;;14.13;;
9968;SDS011;5025;48.890;9.278;2022-12-16T05:03:31;16.77;;;13.67;;
9968;SDS011;5025;48.890;9.278;2022-12-16T05:06:16;16.93;;;13.00;;
9968;SDS011;5025;48.890;9.278;2022-12-16T05:09:00;17.83;;;14.33;;
9968;SDS011;5025;48.890;9.278;2022-12-16T05:11:44;19.77;;;14.80;;
9968;SDS011;5025;48.890;9.278;2022-12-16T05:14:28;17.20;;;13.33;;
9968;SDS011;5025;48.890;9.278;2022-12-16T05:17:12;20.20;;;15.40;;
9968;SDS011;5025;48.890;9.278;2022-12-16T05:19:56;21.90;;;16.53;;
9968;SDS011;5025;48.890;9.278;2022-12-16T05:22:40;21.00;;;15.57;;
9968;SDS011;5025;48.890;9.278;2022-12-16T05:25:24;20.47;;;15.40;;
9968;SDS011;5025;48.890;9.278;2022-12-16T05:28:08;21.10;;;15.93;;
9968;SDS011;5025;48.890;9.278;2022-12-16T05:30:52;18.53;;;14.80;;
9968;SDS011;5025;48.890;9.278;2022-12-16T05:33:36;17.90;;;14.57;;
9968;SDS011;5025;48.890;9.278;2022-12-16T05:36:20;18.67;;;14.43;;
9968;SDS011;5025;48.890;9.278;2022-12-16T05:39:04;18.33;;;14.87;;
9968;SDS011;5025;48.890;9.278;2022-12-16T05:41:48;17.37;;;13.90;;
9968;SDS011;5025;48.890;9.278;2022-12-16T05:44:32;20.50;;;14.63;;
9968;SDS011;5025;48.890;9.278;2022-12-16T05:47:16;16.77;;;13.73;;
9968;SDS011;5025;48.890;9.278;2022-12-16T05:50:00;15.87;;;12.47;;
9968;SDS011;5025;48.890;9.278;2022-12-16T05:52:47;16.60;;;13.17;;
9968;SDS011;5025;48.890;9.278;2022-12-16T05:55:35;17.07;;;13.13;;
9968;SDS011;5025;48.890;9.278;2022-12-16T05:58:19;16.07;;;12.37;;
9968;SDS011;5025;48.890;9.278;2022-12-16T06:01:03;16.00;;;12.13;;
9968;SDS011;5025;48.890;9.278;2022-12-16T06:03:47;16.73;;;12.97;;
9968;SDS011;5025;48.890;9.278;2022-12-16T06:06:31;15.63;;;12.70;;
9968;SDS011;5025;48.890;9.278;2022-12-16T06:09:15;14.57;;;12.00;;
9968;SDS011;5025;48.890;9.278;2022-12-16T06:11:59;16.73;;;12.40;;
9968;SDS011;5025;48.890;9.278;2022-12-16T06:14:43;17.03;;;13.07;;
9968;SDS011;5025;48.890;9.278;2022-12-16T06:17:27;16.20;;;12.47;;
9968;SDS011;5025;48.890;9.278;2022-12-16T06:20:11;16.33;;;12.20;;
9968;SDS011;5025;48.890;9.278;2022-12-16T06:22:55;13.60;;;11.23;;
9968;SDS011;5025;48.890;9.278;2022-12-16T06:25:39;14.03;;;11.57;;
9968;SDS011;5025;48.890;9.278;2022-12-16T06:28:23;15.00;;;11.70;;
9968;SDS011;5025;48.890;9.278;2022-12-16T06:31:08;15.30;;;12.30;;
9968;SDS011;5025;48.890;9.278;2022-12-16T06:33:52;15.90;;;11.97;;
9968;SDS011;5025;48.890;9.278;2022-12-16T06:36:37;13.97;;;11.60;;
9968;SDS011;5025;48.890;9.278;2022-12-16T06:39:21;14.00;;;11.77;;
9968;SDS011;5025;48.890;9.278;2022-12-16T06:42:05;12.97;;;10.90;;
9968;SDS011;5025;48.890;9.278;2022-12-16T06:44:49;13.87;;;11.27;;
9968;SDS011;5025;48.890;9.278;2022-12-16T06:47:33;14.17;;;11.20;;
9968;SDS011;5025;48.890;9.278;2022-12-16T06:50:16;14.67;;;11.27;;
9968;SDS011;5025;48.890;9.278;2022-12-16T06:53:00;12.80;;;9.90;;
9968;SDS011;5025;48.890;9.278;2022-12-16T06:55:44;13.27;;;10.80;;
9968;SDS011;5025;48.890;9.278;2022-12-16T06:58:28;12.67;;;10.27;;
9968;SDS011;5025;48.890;9.278;2022-12-16T07:01:12;12.33;;;9.80;;
9968;SDS011;5025;48.890;9.278;2022-12-16T07:03:56;12.70;;;10.53;;
9968;SDS011;5025;48.890;9.278;2022-12-16T07:06:40;11.97;;;10.33;;
9968;SDS011;5025;48.890;9.278;2022-12-16T07:09:24;12.90;;;10.20;;
9968;SDS011;5025;48.890;9.278;2022-12-16T07:12:08;12.90;;;10.13;;
9968;SDS011;5025;48.890;9.278;2022-12-16T07:14:52;13.73;;;11.10;;
9968;SDS011;5025;48.890;9.278;2022-12-16T07:17:37;15.27;;;11.47;;
9968;SDS011;5025;48.890;9.278;2022-12-16T07:20:22;12.87;;;10.07;;
9968;SDS011;5025;48.890;9.278;2022-12-16T07:23:06;13.00;;;11.00;;
9968;SDS011;5025;48.890;9.278;2022-12-16T07:25:50;14.30;;;11.40;;
9968;SDS011;5025;48.890;9.278;2022-12-16T07:28:50;14.83;;;10.67;;
9968;SDS011;5025;48.890;9.278;2022-12-16T07:31:34;14.60;;;11.43;;
9968;SDS011;5025;48.890;9.278;2022-12-16T07:34:18;12.90;;;10.17;;
9968;SDS011;5025;48.890;9.278;2022-12-16T07:37:02;12.80;;;10.93;;
9968;SDS011;5025;48.890;9.278;2022-12-16T07:39:46;11.80;;;9.97;;
9968;SDS011;5025;48.890;9.278;2022-12-16T07:42:30;12.10;;;9.97;;
9968;SDS011;5025;48.890;9.278;2022-12-16T07:45:13;12.37;;;9.70;;
9968;SDS011;5025;48.890;9.278;2022-12-16T07:47:58;12.33;;;9.90;;
9968;SDS011;5025;48.890;9.278;2022-12-16T07:50:42;13.20;;;10.83;;
9968;SDS011;5025;48.890;9.278;2022-12-16T07:53:26;15.90;;;12.10;;
9968;SDS011;5025;48.890;9.278;2022-12-16T07:56:10;14.27;;;11.17;;
9968;SDS011;5025;48.890;9.278;2022-12-16T07:58:54;12.17;;;10.37;;
9968;SDS011;5025;48.890;9.278;2022-12-16T08:01:38;15.73;;;12.63;;
9968;SDS011;5025;48.890;9.278;2022-12-16T08:04:22;16.53;;;12.80;;
9968;SDS011;5025;48.890;9.278;2022-12-16T08:07:06;16.03;;;12.97;;
9968;SDS011;5025;48.890;9.278;2022-12-16T08:09:50;14.70;;;12.47;;
9968;SDS011;5025;48.890;9.278;2022-12-16T08:12:34;14.90;;;12.60;;
9968;SDS011;5025;48.890;9.278;2022-12-16T08:15:18;18.13;;;14.17;;
9968;SDS011;5025;48.890;9.278;2022-12-16T08:18:02;19.27;;;14.40;;
9968;SDS011;5025;48.890;9.278;2022-12-16T08:20:46;19.50;;;13.60;;
9968;SDS011;5025;48.890;9.278;2022-12-16T08:23:30;18.80;;;14.40;;
9968;SDS011;5025;48.890;9.278;2022-12-16T08:26:14;17.47;;;14.07;;
9968;SDS011;5025;48.890;9.278;2022-12-16T08:28:58;17.17;;;13.47;;
9968;SDS011;5025;48.890;9.278;2022-12-16T08:31:41;16.23;;;12.93;;
9968;SDS011;5025;48.890;9.278;2022-12-16T08:34:25;18.07;;;14.13;;
9968;SDS011;5025;48.890;9.278;2022-12-16T08:37:09;16.93;;;13.13;;
9968;SDS011;5025;48.890;9.278;2022-12-16T08:39:53;16.20;;;12.80;;
9968;SDS011;5025;48.890;9.278;2022-12-16T08:42:37;15.40;;;12.13;;
9968;SDS011;5025;48.890;9.278;2022-12-16T08:45:21;17.13;;;14.00;;
9968;SDS011;5025;48.890;9.278;2022-12-16T08:48:06;17.13;;;13.47;;
9968;SDS011;5025;48.890;9.278;2022-12-16T08:50:50;17.20;;;13.13;;
9968;SDS011;5025;48.890;9.278;2022-12-16T08:53:34;16.57;;;12.97;;
9968;SDS011;5025;48.890;9.278;2022-12-16T08:56:18;17.50;;;12.90;;
9968;SDS011;5025;48.890;9.278;2022-12-16T08:59:02;16.10;;;12.67;;
9968;SDS011;5025;48.890;9.278;2022-12-16T09:01:46;15.83;;;12.93;;
9968;SDS011;5025;48.890;9.278;2022-12-16T09:04:30;16.40;;;13.00;;
9968;SDS011;5025;48.890;9.278;2022-12-16T09:07:14;16.27;;;14.68;;
9968;SDS011;5025;48.890;9.278;2022-12-16T09:09:58;17.67;;;13.70;;
9968;SDS011;5025;48.890;9.278;2022-12-16T09:12:42;15.93;;;12.83;;
9968;SDS011;5025;48.890;9.278;2022-12-16T09:15:26;16.90;;;13.27;;
9968;SDS011;5025;48.890;9.278;2022-12-16T09:18:10;15.83;;;12.63;;
9968;SDS011;5025;48.890;9.278;2022-12-16T09:20:54;14.97;;;11.83;;
9968;SDS011;5025;48.890;9.278;2022-12-16T09:23:38;14.73;;;11.90;;
9968;SDS011;5025;48.890;9.278;2022-12-16T09:26:22;15.10;;;12.37;;
9968;SDS011;5025;48.890;9.278;2022-12-16T09:29:05;15.87;;;12.07;;
9968;SDS011;5025;48.890;9.278;2022-12-16T09:31:50;15.90;;;11.97;;
9968;SDS011;5025;48.890;9.278;2022-12-16T09:34:33;16.87;;;12.80;;
9968;SDS011;5025;48.890;9.278;2022-12-16T09:37:18;16.43;;;12.20;;
9968;SDS011;5025;48.890;9.278;2022-12-16T09:40:02;17.83;;;12.17;;
9968;SDS011;5025;48.890;9.278;2022-12-16T09:46:07;16.50;;;12.83;;
9968;SDS011;5025;48.890;9.278;2022-12-16T09:52:18;15.17;;;11.83;;
9968;SDS011;5025;48.890;9.278;2022-12-16T09:55:13;17.47;;;12.83;;
9968;SDS011;5025;48.890;9.278;2022-12-16T09:58:06;16.17;;;12.27;;
9968;SDS011;5025;48.890;9.278;2022-12-16T10:00:52;15.50;;;12.20;;
9968;SDS011;5025;48.890;9.278;2022-12-16T10:03:37;16.67;;;12.30;;
9968;SDS011;5025;48.890;9.278;2022-12-16T10:06:41;15.17;;;12.47;;
9968;SDS011;5025;48.890;9.278;2022-12-16T10:12:50;14.40;;;11.93;;
9968;SDS011;5025;48.890;9.278;2022-12-16T10:25:07;15.93;;;12.00;;
9968;SDS011;5025;48.890;9.278;2022-12-16T10:28:23;16.83;;;12.07;;
9968;SDS011;5025;48.890;9.278;2022-12-16T10:31:14;16.97;;;12.57;;
9968;SDS011;5025;48.890;9.278;2022-12-16T10:34:23;15.17;;;12.50;;
9968;SDS011;5025;48.890;9.278;2022-12-16T10:37:12;14.33;;;11.43;;
9968;SDS011;5025;48.890;9.278;2022-12-16T10:40:05;15.20;;;12.10;;
9968;SDS011;5025;48.890;9.278;2022-12-16T10:43:00;15.53;;;12.37;;
9968;SDS011;5025;48.890;9.278;2022-12-16T10:45:47;16.43;;;11.87;;
9968;SDS011;5025;48.890;9.278;2022-12-16T10:48:34;16.87;;;12.50;;
9968;SDS011;5025;48.890;9.278;2022-12-16T10:51:19;14.57;;;12.33;;
9968;SDS011;5025;48.890;9.278;2022-12-16T10:57:30;14.93;;;12.23;;
9968;SDS011;5025;48.890;9.278;2022-12-16T11:00:38;13.30;;;11.30;;
9968;SDS011;5025;48.890;9.278;2022-12-16T11:03:25;14.97;;;11.13;;
9968;SDS011;5025;48.890;9.278;2022-12-16T11:06:14;13.00;;;10.00;;
9968;SDS011;5025;48.890;9.278;2022-12-16T11:09:14;16.37;;;12.40;;
9968;SDS011;5025;48.890;9.278;2022-12-16T11:15:20;15.13;;;12.20;;
9968;SDS011;5025;48.890;9.278;2022-12-16T11:18:21;15.27;;;11.47;;
9968;SDS011;5025;48.890;9.278;2022-12-16T11:21:18;15.37;;;12.63;;
9968;SDS011;5025;48.890;9.278;2022-12-16T11:24:14;16.13;;;11.53;;
9968;SDS011;5025;48.890;9.278;2022-12-16T11:27:02;14.07;;;11.90;;
9968;SDS011;5025;48.890;9.278;2022-12-16T11:29:57;15.00;;;12.50;;
9968;SDS011;5025;48.890;9.278;2022-12-16T11:32:44;14.23;;;11.07;;
9968;SDS011;5025;48.890;9.278;2022-12-16T11:35:33;14.13;;;10.87;;
9968;SDS011;5025;48.890;9.278;2022-12-16T11:38:24;13.03;;;10.30;;
9968;SDS011;5025;48.890;9.278;2022-12-16T11:41:21;13.70;;;10.47;;
9968;SDS011;5025;48.890;9.278;2022-12-16T11:44:12;14.77;;;11.27;;
9968;SDS011;5025;48.890;9.278;2022-12-16T11:47:01;12.37;;;9.70;;
9968;SDS011;5025;48.890;9.278;2022-12-16T11:49:46;13.70;;;10.80;;
9968;SDS011;5025;48.890;9.278;2022-12-16T11:52:30;16.13;;;12.77;;
9968;SDS011;5025;48.890;9.278;2022-12-16T11:55:19;17.87;;;13.47;;
9968;SDS011;5025;48.890;9.278;2022-12-16T11:58:15;17.77;;;13.33;;
9968;SDS011;5025;48.890;9.278;2022-12-16T12:03:53;13.27;;;10.67;;
9968;SDS011;5025;48.890;9.278;2022-12-16T12:09:31;12.77;;;9.80;;
9968;SDS011;5025;48.890;9.278;2022-12-16T12:15:37;11.97;;;9.90;;
9968;SDS011;5025;48.890;9.278;2022-12-16T12:19:28;11.70;;;9.70;;
9968;SDS011;5025;48.890;9.278;2022-12-16T12:21:51;11.97;;;9.07;;
9968;SDS011;5025;48.890;9.278;2022-12-16T12:24:57;11.50;;;9.00;;
9968;SDS011;5025;48.890;9.278;2022-12-16T12:31:05;14.33;;;10.27;;
9968;SDS011;5025;48.890;9.278;2022-12-16T12:34:17;13.27;;;10.40;;
9968;SDS011;5025;48.890;9.278;2022-12-16T12:37:15;13.97;;;10.27;;
9968;SDS011;5025;48.890;9.278;2022-12-16T12:40:12;13.23;;;10.37;;
9968;SDS011;5025;48.890;9.278;2022-12-16T12:42:57;14.00;;;10.30;;
9968;SDS011;5025;48.890;9.278;2022-12-16T12:58:00;15.93;;;11.03;;
9968;SDS011;5025;48.890;9.278;2022-12-16T13:00:48;14.43;;;11.77;;
9968;SDS011;5025;48.890;9.278;2022-12-16T13:06:33;14.33;;;11.07;;
9968;SDS011;5025;48.890;9.278;2022-12-16T13:09:31;13.57;;;10.70;;
9968;SDS011;5025;48.890;9.278;2022-12-16T13:12:19;14.03;;;10.83;;
9968;SDS011;5025;48.890;9.278;2022-12-16T13:15:06;13.90;;;10.80;;
9968;SDS011;5025;48.890;9.278;2022-12-16T13:20:54;15.60;;;10.90;;
9968;SDS011;5025;48.890;9.278;2022-12-16T13:23:41;13.33;;;10.20;;
9968;SDS011;5025;48.890;9.278;2022-12-16T13:26:27;14.53;;;11.30;;
9968;SDS011;5025;48.890;9.278;2022-12-16T13:37:59;14.37;;;11.40;;
9968;SDS011;5025;48.890;9.278;2022-12-16T13:40:56;14.13;;;12.07;;
9968;SDS011;5025;48.890;9.278;2022-12-16T13:43:51;17.10;;;13.63;;
9968;SDS011;5025;48.890;9.278;2022-12-16T13:55:39;18.03;;;13.73;;
9968;SDS011;5025;48.890;9.278;2022-12-16T13:58:51;15.67;;;12.03;;
9968;SDS011;5025;48.890;9.278;2022-12-16T14:04:45;13.13;;;10.97;;
9968;SDS011;5025;48.890;9.278;2022-12-16T14:07:33;17.77;;;12.60;;
9968;SDS011;5025;48.890;9.278;2022-12-16T14:13:26;14.90;;;10.97;;
9968;SDS011;5025;48.890;9.278;2022-12-16T14:16:20;16.53;;;10.87;;
9968;SDS011;5025;48.890;9.278;2022-12-16T14:19:30;13.70;;;10.37;;
9968;SDS011;5025;48.890;9.278;2022-12-16T14:22:29;13.13;;;10.60;;
9968;SDS011;5025;48.890;9.278;2022-12-16T14:25:27;13.10;;;10.63;;
9968;SDS011;5025;48.890;9.278;2022-12-16T14:31:17;11.93;;;9.27;;
9968;SDS011;5025;48.890;9.278;2022-12-16T14:34:04;11.40;;;9.27;;
9968;SDS011;5025;48.890;9.278;2022-12-16T14:36:59;12.57;;;9.97;;
9968;SDS011;5025;48.890;9.278;2022-12-16T14:40:00;14.00;;;9.57;;
9968;SDS011;5025;48.890;9.278;2022-12-16T14:42:43;10.40;;;8.83;;
9968;SDS011;5025;48.890;9.278;2022-12-16T14:45:32;13.03;;;10.17;;
9968;SDS011;5025;48.890;9.278;2022-12-16T14:57:02;12.50;;;9.63;;
9968;SDS011;5025;48.890;9.278;2022-12-16T14:59:58;11.27;;;9.50;;
9968;SDS011;5025;48.890;9.278;2022-12-16T15:02:46;11.03;;;8.90;;
9968;SDS011;5025;48.890;9.278;2022-12-16T15:05:34;11.13;;;9.30;;
9968;SDS011;5025;48.890;9.278;2022-12-16T15:08:20;11.23;;;9.03;;
9968;SDS011;5025;48.890;9.278;2022-12-16T15:11:06;11.50;;;8.57;;
9968;SDS011;5025;48.890;9.278;2022-12-16T15:13:54;10.83;;;8.63;;
9968;SDS011;5025;48.890;9.278;2022-12-16T15:16:41;9.00;;;7.87;;
9968;SDS011;5025;48.890;9.278;2022-12-16T15:19:27;9.83;;;8.00;;
9968;SDS011;5025;48.890;9.278;2022-12-16T15:22:19;9.73;;;7.90;;
9968;SDS011;5025;48.890;9.278;2022-12-16T15:25:04;9.43;;;7.87;;
9968;SDS011;5025;48.890;9.278;2022-12-16T15:27:54;7.50;;;6.70;;
9968;SDS011;5025;48.890;9.278;2022-12-16T15:30:40;9.47;;;7.43;;
9968;SDS011;5025;48.890;9.278;2022-12-16T15:33:26;7.87;;;6.73;;
9968;SDS011;5025;48.890;9.278;2022-12-16T15:36:18;8.07;;;6.80;;
9968;SDS011;5025;48.890;9.278;2022-12-16T15:39:13;7.93;;;7.13;;
9968;SDS011;5025;48.890;9.278;2022-12-16T15:42:04;8.97;;;8.07;;
9968;SDS011;5025;48.890;9.278;2022-12-16T15:44:49;10.20;;;8.40;;
9968;SDS011;5025;48.890;9.278;2022-12-16T15:47:35;11.00;;;9.40;;
9968;SDS011;5025;48.890;9.278;2022-12-16T15:50:22;11.53;;;9.07;;
9968;SDS011;5025;48.890;9.278;2022-12-16T15:56:18;12.13;;;9.30;;
9968;SDS011;5025;48.890;9.278;2022-12-16T16:02:26;11.13;;;9.30;;
9968;SDS011;5025;48.890;9.278;2022-12-16T16:05:14;11.07;;;9.17;;
9968;SDS011;5025;48.890;9.278;2022-12-16T16:08:01;12.07;;;9.77;;
9968;SDS011;5025;48.890;9.278;2022-12-16T16:10:45;10.13;;;8.53;;
9968;SDS011;5025;48.890;9.278;2022-12-16T16:13:29;9.63;;;8.63;;
9968;SDS011;5025;48.890;9.278;2022-12-16T16:16:13;10.40;;;8.80;;
9968;SDS011;5025;48.890;9.278;2022-12-16T16:18:58;10.90;;;8.20;;
9968;SDS011;5025;48.890;9.278;2022-12-16T16:21:42;9.30;;;7.90;;
9968;SDS011;5025;48.890;9.278;2022-12-16T16:24:26;11.17;;;9.33;;
9968;SDS011;5025;48.890;9.278;2022-12-16T16:27:11;10.53;;;8.90;;
9968;SDS011;5025;48.890;9.278;2022-12-16T16:29:56;12.47;;;9.80;;
9968;SDS011;5025;48.890;9.278;2022-12-16T16:32:41;15.50;;;9.90;;
9968;SDS011;5025;48.890;9.278;2022-12-16T16:35:25;12.83;;;10.30;;
9968;SDS011;5025;48.890;9.278;2022-12-16T16:38:09;12.97;;;10.17;;
9968;SDS011;5025;48.890;9.278;2022-12-16T16:40:54;13.33;;;10.43;;
9968;SDS011;5025;48.890;9.278;2022-12-16T16:43:39;13.70;;;10.73;;
9968;SDS011;5025;48.890;9.278;2022-12-16T16:46:27;12.53;;;10.50;;
9968;SDS011;5025;48.890;9.278;2022-12-16T16:49:19;14.10;;;10.80;;
9968;SDS011;5025;48.890;9.278;2022-12-16T16:52:26;12.03;;;10.27;;
9968;SDS011;5025;48.890;9.278;2022-12-16T16:55:18;14.83;;;10.60;;
9968;SDS011;5025;48.890;9.278;2022-12-16T16:58:05;12.37;;;10.13;;
9968;SDS011;5025;48.890;9.278;2022-12-16T17:00:54;12.80;;;9.93;;
9968;SDS011;5025;48.890;9.278;2022-12-16T17:03:38;13.13;;;10.43;;
9968;SDS011;5025;48.890;9.278;2022-12-16T17:06:22;11.83;;;10.17;;
9968;SDS011;5025;48.890;9.278;2022-12-16T17:09:06;13.33;;;10.87;;
9968;SDS011;5025;48.890;9.278;2022-12-16T17:11:50;12.30;;;10.23;;
9968;SDS011;5025;48.890;9.278;2022-12-16T17:14:34;14.67;;;10.70;;
9968;SDS011;5025;48.890;9.278;2022-12-16T17:17:18;13.93;;;10.90;;
9968;SDS011;5025;48.890;9.278;2022-12-16T17:20:02;12.90;;;10.27;;
9968;SDS011;5025;48.890;9.278;2022-12-16T17:22:46;15.20;;;11.80;;
9968;SDS011;5025;48.890;9.278;2022-12-16T17:25:34;15.17;;;11.03;;
9968;SDS011;5025;48.890;9.278;2022-12-16T17:28:18;14.47;;;11.13;;
9968;SDS011;5025;48.890;9.278;2022-12-16T17:31:02;14.57;;;11.87;;
9968;SDS011;5025;48.890;9.278;2022-12-16T17:33:46;15.40;;;11.97;;
9968;SDS011;5025;48.890;9.278;2022-12-16T17:36:30;15.70;;;11.87;;
9968;SDS011;5025;48.890;9.278;2022-12-16T17:39:14;14.63;;;11.87;;
9968;SDS011;5025;48.890;9.278;2022-12-16T17:41:58;16.53;;;11.80;;
9968;SDS011;5025;48.890;9.278;2022-12-16T17:44:41;13.67;;;11.17;;
9968;SDS011;5025;48.890;9.278;2022-12-16T17:47:25;13.87;;;11.60;;
9968;SDS011;5025;48.890;9.278;2022-12-16T17:50:09;15.73;;;11.97;;
9968;SDS011;5025;48.890;9.278;2022-12-16T17:52:57;16.77;;;12.83;;
9968;SDS011;5025;48.890;9.278;2022-12-16T17:55:41;16.23;;;11.80;;
9968;SDS011;5025;48.890;9.278;2022-12-16T17:58:30;16.77;;;12.53;;
9968;SDS011;5025;48.890;9.278;2022-12-16T18:01:18;14.03;;;11.60;;
9968;SDS011;5025;48.890;9.278;2022-12-16T18:04:02;16.10;;;11.87;;
9968;SDS011;5025;48.890;9.278;2022-12-16T18:06:46;16.87;;;13.17;;
9968;SDS011;5025;48.890;9.278;2022-12-16T18:09:35;14.90;;;12.07;;
9968;SDS011;5025;48.890;9.278;2022-12-16T18:12:18;15.93;;;12.33;;
9968;SDS011;5025;48.890;9.278;2022-12-16T18:15:03;16.50;;;12.43;;
9968;SDS011;5025;48.890;9.278;2022-12-16T18:17:47;14.50;;;12.17;;
9968;SDS011;5025;48.890;9.278;2022-12-16T18:20:32;15.63;;;11.77;;
9968;SDS011;5025;48.890;9.278;2022-12-16T18:23:16;16.80;;;11.70;;
9968;SDS011;5025;48.890;9.278;2022-12-16T18:26:02;14.60;;;11.40;;